Time;durP1;ratioP1;P1;durP2;ratioP2;P2;SDS_P1;SDS_P2;PMS_P1;PMS_P2;Temp;Humidity;BMP_temperature;BMP_pressure;BME280_temperature;BME280_humidity;BME280_pressure;Samples;Min_cycle;Max_cycle;Signal;HPM_P1;HPM_P2
2022/09/15 00:02:02;;;;;;;3.90;1.20;;;;;;;21.24;80.79;99314.97;5032655;28;20191;-70
2022/09/15 00:04:28;;;;;;;9.30;1.73;;;;;;;21.24;80.65;99317.84;5032535;28;20183;-70
2022/09/15 00:06:53;;;;;;;2.93;1.40;;;;;;;21.25;81.02;99316.59;5032567;28;20543;-70
2022/09/15 00:09:19;;;;;;;5.17;1.57;;;;;;;21.25;81.15;99312.91;5050255;28;20160;-70
2022/09/15 00:11:44;;;;;;;3.30;1.20;;;;;;;21.24;81.04;99314.97;5050108;28;20183;-70
2022/09/15 00:14:09;;;;;;;5.00;1.60;;;;;;;21.22;80.98;99313.75;5032388;28;20569;-70
2022/09/15 00:16:35;;;;;;;2.80;1.37;;;;;;;21.24;80.98;99314.97;5017768;28;20635;-70
2022/09/15 00:19:00;;;;;;;3.97;1.50;;;;;;;21.22;81.31;99314.56;5052089;28;20549;-70
2022/09/15 00:21:29;;;;;;;2.63;1.47;;;;;;;21.18;81.12;99312.97;5034863;28;20171;-70
2022/09/15 00:23:54;;;;;;;3.40;1.50;;;;;;;21.22;80.94;99316.63;5033545;28;20226;-70
2022/09/15 00:26:22;;;;;;;2.80;1.30;;;;;;;21.16;81.41;99310.50;5029410;28;20418;-70
2022/09/15 00:28:47;;;;;;;2.93;1.63;;;;;;;21.16;81.55;99306.81;5048367;28;20182;-70
2022/09/15 00:31:15;;;;;;;5.83;2.00;;;;;;;21.11;82.33;99310.97;5042608;28;20778;-70
2022/09/15 00:33:40;;;;;;;4.10;1.03;;;;;;;21.12;82.08;99298.25;4996203;28;20157;-70
2022/09/15 00:36:08;;;;;;;3.70;1.60;;;;;;;21.15;81.77;99296.56;5012402;28;20404;-70
2022/09/15 00:38:33;;;;;;;3.20;1.60;;;;;;;21.15;81.82;99297.41;4995869;28;20176;-70
2022/09/15 00:40:59;;;;;;;4.50;1.30;;;;;;;21.18;81.23;99296.53;4995627;28;20424;-70
2022/09/15 00:44:15;;;;;;;3.60;1.60;;;;;;;21.21;81.10;99307.19;4995858;28;20653;-70
2022/09/15 00:46:42;;;;;;;4.50;1.53;;;;;;;21.21;81.12;99306.34;4972403;28;20193;-70
2022/09/15 00:49:13;;;;;;;5.43;2.13;;;;;;;21.04;82.53;99305.28;5005857;28;20419;-70
2022/09/15 00:51:46;;;;;;;4.83;1.80;;;;;;;21.07;82.40;99300.75;5042584;28;20498;-70
2022/09/15 00:54:22;;;;;;;2.00;1.10;;;;;;;21.01;82.28;99300.38;5050177;28;20402;-70
2022/09/15 00:56:48;;;;;;;3.87;1.67;;;;;;;21.11;81.93;99290.03;5024123;28;20559;-70
2022/09/15 00:59:17;;;;;;;5.43;1.73;;;;;;;21.02;83.04;99293.41;5027289;28;20423;-70
2022/09/15 01:01:42;;;;;;;6.17;1.87;;;;;;;21.07;82.31;99286.41;5024605;28;20447;-70
2022/09/15 01:04:08;;;;;;;4.13;1.80;;;;;;;21.14;81.65;99290.03;4979296;28;20466;-70
2022/09/15 01:06:41;;;;;;;3.47;1.50;;;;;;;21.18;81.40;99290.81;5027984;28;20188;-70
2022/09/15 01:09:17;;;;;;;2.43;1.37;;;;;;;21.11;81.85;99284.31;4995348;28;20246;-70
2022/09/15 01:11:43;;;;;;;5.23;1.60;;;;;;;20.88;83.16;99281.19;4995696;28;20444;-70
2022/09/15 01:14:09;;;;;;;6.03;1.93;;;;;;;20.95;82.86;99281.16;5011664;28;20814;-70
2022/09/15 01:16:50;;;;;;;3.93;1.50;;;;;;;20.91;82.85;99288.97;5015132;28;20164;-70
2022/09/15 01:19:21;;;;;;;3.93;1.70;;;;;;;20.83;83.57;99275.91;5069271;28;20173;-70
2022/09/15 01:21:50;;;;;;;5.93;1.90;;;;;;;20.90;83.03;99282.44;5037739;28;20636;-70
2022/09/15 01:24:16;;;;;;;4.50;2.00;;;;;;;20.83;83.66;99276.69;5011485;28;20487;-70
2022/09/15 01:26:47;;;;;;;5.90;1.70;;;;;;;20.97;82.45;99288.09;5028697;28;20414;-70
2022/09/15 01:29:40;;;;;;;3.87;1.73;;;;;;;21.04;81.87;99284.38;5011485;28;20184;-70
2022/09/15 01:35:10;;;;;;;3.37;1.60;;;;;;;21.03;82.00;99277.00;5047681;28;20484;-70
2022/09/15 01:37:42;;;;;;;5.07;1.50;;;;;;;20.99;82.26;99277.03;5046992;28;20468;-70
2022/09/15 01:40:08;;;;;;;10.70;1.80;;;;;;;20.79;83.30;99275.94;5047963;28;20491;-70
2022/09/15 01:42:34;;;;;;;4.33;1.60;;;;;;;20.97;82.33;99278.72;5030530;28;20552;-70
2022/09/15 01:45:08;;;;;;;3.60;1.80;;;;;;;20.99;82.33;99282.78;5015607;28;20411;-70
2022/09/15 01:47:33;;;;;;;3.37;1.93;;;;;;;21.03;82.05;99283.53;5014763;28;20221;-70
2022/09/15 01:50:06;;;;;;;3.03;1.60;;;;;;;21.08;81.25;99279.44;5034168;28;20425;-70
2022/09/15 01:52:32;;;;;;;5.20;2.37;;;;;;;20.99;82.00;99282.78;5034552;28;20190;-70
2022/09/15 01:54:59;;;;;;;7.83;1.77;;;;;;;20.99;82.20;99277.03;5050571;28;20409;-70
2022/09/15 01:57:25;;;;;;;2.10;1.30;;;;;;;20.91;83.09;99286.94;5019991;28;20304;-70
2022/09/15 01:59:52;;;;;;;4.97;1.50;;;;;;;20.91;82.54;99283.22;5027543;28;20415;-70
2022/09/15 02:02:22;;;;;;;4.90;1.50;;;;;;;20.79;83.48;99277.97;5027012;28;20446;-70
2022/09/15 02:04:58;;;;;;;3.50;1.70;;;;;;;20.87;82.57;99279.56;5028877;28;20424;-70
2022/09/15 02:07:36;;;;;;;7.20;1.80;;;;;;;20.89;82.52;99289.44;5025373;28;20419;-70
2022/09/15 02:10:12;;;;;;;4.70;2.00;;;;;;;20.85;82.83;99270.56;5026853;28;20782;-70
2022/09/15 02:12:46;;;;;;;3.03;1.30;;;;;;;20.69;83.51;99276.84;5025446;28;20775;-70
2022/09/15 02:15:13;;;;;;;3.53;1.57;;;;;;;20.70;83.37;99272.72;5026891;28;20398;-70
2022/09/15 02:17:44;;;;;;;3.77;1.70;;;;;;;20.76;82.75;99281.69;5040539;28;20444;-70
2022/09/15 02:20:17;;;;;;;5.03;1.83;;;;;;;20.72;83.03;99278.84;5034145;28;20405;-70
2022/09/15 02:22:46;;;;;;;4.50;2.20;;;;;;;20.87;82.05;99283.25;5050093;28;20477;-70
2022/09/15 02:25:15;;;;;;;3.93;1.70;;;;;;;20.75;83.06;99282.91;5050737;28;20404;-70
2022/09/15 02:27:45;;;;;;;7.60;2.10;;;;;;;20.85;82.27;99288.59;5046497;28;20441;-70
2022/09/15 02:30:12;;;;;;;4.30;1.83;;;;;;;20.95;81.75;99284.84;5031194;28;20422;-70
2022/09/15 02:32:39;;;;;;;4.80;1.93;;;;;;;20.74;83.00;99264.91;5030126;28;20552;-70
2022/09/15 02:35:06;;;;;;;4.70;1.57;;;;;;;20.52;83.68;99265.47;5048588;28;20401;-70
2022/09/15 02:37:32;;;;;;;8.67;2.30;;;;;;;20.74;82.73;99264.91;5047055;28;20418;-70
2022/09/15 02:39:57;;;;;;;4.77;1.60;;;;;;;20.73;82.98;99262.47;5047205;28;20441;-70
2022/09/15 02:42:27;;;;;;;3.40;1.50;;;;;;;20.53;83.80;99265.03;4997016;28;20177;-71
2022/09/15 02:44:53;;;;;;;5.00;1.90;;;;;;;20.62;83.14;99261.72;4997649;28;20172;-70
2022/09/15 02:47:18;;;;;;;3.53;1.30;;;;;;;20.61;83.39;99265.81;5029869;28;20825;-70
2022/09/15 02:49:44;;;;;;;15.20;2.33;;;;;;;20.66;82.91;99263.31;5054293;28;20175;-70
2022/09/15 02:52:09;;;;;;;5.50;2.00;;;;;;;20.85;81.69;99259.91;5052462;28;20217;-70
2022/09/15 02:54:35;;;;;;;7.63;2.13;;;;;;;20.73;82.23;99262.47;5070398;28;20206;-70
2022/09/15 02:57:00;;;;;;;5.23;1.90;;;;;;;20.75;82.44;99265.72;5044957;28;20642;-70
2022/09/15 02:59:26;;;;;;;2.87;1.53;;;;;;;20.76;81.89;99262.44;5050366;28;20175;-70
2022/09/15 03:01:52;;;;;;;3.67;1.63;;;;;;;20.58;83.33;99261.72;5049848;28;20290;-70
2022/09/15 03:04:17;;;;;;;7.13;1.93;;;;;;;20.73;82.30;99259.59;5032487;28;20211;-70
2022/09/15 03:06:43;;;;;;;4.83;2.03;;;;;;;20.70;82.30;99263.28;5032975;28;20419;-70
2022/09/15 03:09:08;;;;;;;3.30;1.57;;;;;;;20.73;81.87;99257.53;5017240;28;20650;-70
2022/09/15 03:11:34;;;;;;;3.37;1.47;;;;;;;20.74;81.75;99266.94;5051456;28;20172;-70
2022/09/15 03:14:01;;;;;;;5.47;1.57;;;;;;;20.61;82.94;99266.63;5017278;28;20164;-70
2022/09/15 03:16:27;;;;;;;6.43;1.50;;;;;;;20.71;82.05;99265.75;5033742;28;20207;-70
2022/09/15 03:18:58;;;;;;;8.83;1.80;;;;;;;20.74;82.07;99258.34;5035162;28;20471;-70
2022/09/15 03:21:23;;;;;;;2.63;1.30;;;;;;;20.63;82.96;99257.63;5005176;28;20429;-70
2022/09/15 03:23:49;;;;;;;2.80;1.30;;;;;;;20.66;82.40;99256.75;4981161;28;20478;-70
2022/09/15 03:26:14;;;;;;;4.67;1.70;;;;;;;20.72;82.38;99260.84;5046883;28;20222;-70
2022/09/15 03:28:40;;;;;;;4.13;1.30;;;;;;;20.72;81.69;99258.75;5046749;28;20187;-70
2022/09/15 03:31:06;;;;;;;3.33;1.30;;;;;;;20.67;82.42;99267.81;5030712;28;20179;-70
2022/09/15 03:33:31;;;;;;;7.93;1.77;;;;;;;20.69;81.93;99259.63;5048289;28;20164;-70
2022/09/15 03:35:57;;;;;;;3.83;1.20;;;;;;;20.61;82.43;99271.53;5015589;28;20422;-70
2022/09/15 03:38:22;;;;;;;3.80;1.50;;;;;;;20.62;82.48;99271.13;5032430;28;20627;-70
2022/09/15 03:41:08;;;;;;;7.33;1.47;;;;;;;20.62;82.47;99285.47;5033841;28;20185;-70
2022/09/15 03:43:34;;;;;;;8.63;1.60;;;;;;;20.69;82.05;99273.97;4981572;28;20286;-70
2022/09/15 03:46:00;;;;;;;6.97;2.10;;;;;;;20.67;81.89;99270.69;5013342;28;20986;-70
2022/09/15 03:48:26;;;;;;;3.93;1.63;;;;;;;20.73;81.05;99266.13;5030817;28;20428;-70
2022/09/15 03:50:51;;;;;;;3.17;1.60;;;;;;;20.69;82.05;99267.41;5036622;28;20186;-70
2022/09/15 03:53:17;;;;;;;2.90;1.30;;;;;;;20.81;80.90;99269.75;5036053;28;20776;-70
2022/09/15 03:55:44;;;;;;;3.37;2.00;;;;;;;20.65;81.98;99267.44;5051883;28;20201;-70
2022/09/15 03:58:10;;;;;;;4.53;1.60;;;;;;;20.73;81.17;99268.19;5015703;28;20628;-70
2022/09/15 04:00:35;;;;;;;8.03;1.40;;;;;;;20.72;80.90;99270.25;5029322;28;20439;-70
2022/09/15 04:03:01;;;;;;;3.07;1.40;;;;;;;20.74;81.09;99276.38;4996092;28;20455;-70
2022/09/15 04:05:26;;;;;;;5.53;1.40;;;;;;;20.74;81.05;99266.94;5030830;28;20164;-71
2022/09/15 04:07:51;;;;;;;5.67;1.50;;;;;;;20.67;81.15;99264.16;5030335;28;20172;-70
2022/09/15 04:10:17;;;;;;;8.53;1.63;;;;;;;20.80;80.72;99268.97;5012949;28;20180;-70
2022/09/15 04:12:43;;;;;;;5.67;1.43;;;;;;;20.81;80.20;99258.28;5012205;28;20169;-70
2022/09/15 04:15:08;;;;;;;3.40;1.30;;;;;;;20.66;81.32;99263.31;5012778;28;20246;-71
2022/09/15 04:17:34;;;;;;;3.20;1.50;;;;;;;20.67;81.10;99256.34;5032410;28;20187;-70
2022/09/15 04:19:59;;;;;;;2.60;1.60;;;;;;;20.71;80.61;99259.19;5035513;28;20522;-71
2022/09/15 04:22:25;;;;;;;2.57;1.33;;;;;;;20.68;81.03;99252.22;5035552;28;20265;-71
2022/09/15 04:24:51;;;;;;;6.83;2.30;;;;;;;20.64;81.49;99244.91;5053007;28;20646;-70
2022/09/15 04:27:16;;;;;;;4.93;1.53;;;;;;;20.55;82.04;99250.28;5048504;28;20205;-70
2022/09/15 04:29:42;;;;;;;4.30;1.50;;;;;;;20.63;81.23;99252.69;5050147;28;20172;-71
2022/09/15 04:32:07;;;;;;;2.70;1.70;;;;;;;20.74;80.96;99253.44;5048638;28;20520;-71
2022/09/15 04:34:33;;;;;;;3.10;1.50;;;;;;;20.55;81.96;99253.16;5048737;28;20160;-71
2022/09/15 04:36:59;;;;;;;2.87;1.40;;;;;;;20.57;81.90;99250.69;5048640;28;20175;-71
2022/09/15 04:39:24;;;;;;;5.00;1.37;;;;;;;20.61;81.81;99248.59;5048418;28;20229;-70
2022/09/15 04:41:49;;;;;;;6.70;1.97;;;;;;;20.71;81.02;99251.41;5048380;28;20206;-70
2022/09/15 04:44:15;;;;;;;3.37;1.47;;;;;;;20.71;80.67;99262.03;5015281;28;20215;-70
2022/09/15 04:46:40;;;;;;;5.07;1.90;;;;;;;20.83;80.47;99261.56;5051036;28;20201;-70
2022/09/15 04:49:06;;;;;;;3.57;1.47;;;;;;;20.78;80.68;99262.00;5069780;28;20526;-71
2022/09/15 04:51:31;;;;;;;2.70;1.37;;;;;;;20.67;80.95;99259.22;5025842;28;20168;-70
2022/09/15 04:53:57;;;;;;;2.83;1.40;;;;;;;20.69;80.78;99253.88;4979427;28;20652;-71
2022/09/15 04:56:23;;;;;;;2.83;1.10;;;;;;;20.60;81.26;99258.44;4995288;28;20638;-70
2022/09/15 04:58:55;;;;;;;3.53;1.40;;;;;;;20.64;81.12;99253.50;5011928;28;20156;-70
2022/09/15 05:01:26;;;;;;;3.30;1.43;;;;;;;20.52;81.85;99263.41;4995870;28;20806;-70
2022/09/15 05:03:52;;;;;;;5.03;1.90;;;;;;;20.54;81.84;99263.81;4995813;28;20443;-70
2022/09/15 05:06:22;;;;;;;3.63;1.50;;;;;;;20.48;81.58;99254.03;5011719;28;20946;-71
2022/09/15 05:08:52;;;;;;;4.60;2.30;;;;;;;20.47;82.33;99258.13;4995085;28;20195;-71
2022/09/15 05:11:18;;;;;;;2.70;1.40;;;;;;;20.57;81.61;99259.31;4995730;28;21096;-70
2022/09/15 05:13:43;;;;;;;8.77;2.63;;;;;;;20.58;81.62;99261.72;4995264;28;20514;-70
2022/09/15 05:16:16;;;;;;;5.10;1.90;;;;;;;20.58;81.51;99256.00;5011605;28;20302;-71
2022/09/15 05:18:44;;;;;;;3.47;1.90;;;;;;;20.59;81.53;99256.81;5029923;28;20175;-71
2022/09/15 05:21:10;;;;;;;3.27;1.80;;;;;;;20.32;83.19;99270.91;5031607;28;20410;-70
2022/09/15 05:23:36;;;;;;;4.30;1.83;;;;;;;20.53;81.66;99267.91;5030515;28;21035;-71
2022/09/15 05:26:03;;;;;;;5.00;1.57;;;;;;;20.45;82.15;99271.25;5029246;28;20454;-71
2022/09/15 05:28:31;;;;;;;3.10;1.57;;;;;;;20.64;81.47;99270.72;5022096;28;20184;-71
2022/09/15 05:30:56;;;;;;;3.33;1.50;;;;;;;20.68;81.29;99283.78;5027484;28;20887;-71
2022/09/15 05:33:22;;;;;;;5.40;1.70;;;;;;;20.67;81.11;99292.84;5028163;28;20411;-71
2022/09/15 05:35:54;;;;;;;3.83;1.73;;;;;;;20.65;80.96;99304.72;4994776;28;20195;-71
2022/09/15 05:38:20;;;;;;;5.03;2.27;;;;;;;20.74;80.73;99307.09;5028631;28;20203;-71
2022/09/15 05:40:45;;;;;;;3.73;1.97;;;;;;;20.77;80.54;99307.09;5011376;28;20880;-71
2022/09/15 05:43:11;;;;;;;8.53;1.90;;;;;;;20.76;80.59;99302.59;4994621;28;20660;-71
2022/09/15 05:45:36;;;;;;;7.40;2.13;;;;;;;20.76;80.34;99298.88;4995026;28;20168;-71
2022/09/15 05:48:02;;;;;;;4.03;1.70;;;;;;;20.51;81.94;99299.06;5021893;28;20183;-71
2022/09/15 05:50:29;;;;;;;4.93;2.00;;;;;;;20.61;81.12;99305.94;5044454;28;20558;-71
2022/09/15 05:52:55;;;;;;;3.60;1.40;;;;;;;20.69;80.92;99302.66;4995098;28;20403;-71
2022/09/15 05:55:20;;;;;;;7.37;1.70;;;;;;;20.72;80.77;99309.59;5010877;28;20411;-71
2022/09/15 05:57:46;;;;;;;4.43;1.80;;;;;;;20.66;81.29;99314.94;5004646;28;20183;-71
2022/09/15 06:00:11;;;;;;;3.43;1.90;;;;;;;20.71;80.98;99320.25;5028959;28;20172;-70
2022/09/15 06:02:37;;;;;;;4.47;1.80;;;;;;;20.78;80.56;99323.06;5027263;28;20251;-70
2022/09/15 06:05:03;;;;;;;2.80;2.00;;;;;;;20.71;81.37;99311.63;5010540;28;20172;-70
2022/09/15 06:07:28;;;;;;;5.40;2.20;;;;;;;20.85;80.11;99313.59;5028664;28;20168;-70
2022/09/15 06:09:54;;;;;;;4.37;1.80;;;;;;;20.80;80.60;99314.84;5028795;28;20179;-70
2022/09/15 06:12:19;;;;;;;4.43;1.80;;;;;;;20.84;80.59;99320.56;5028661;28;20175;-70
2022/09/15 06:14:49;;;;;;;3.93;1.67;;;;;;;20.85;80.00;99333.66;5027048;28;20199;-70
2022/09/15 06:17:18;;;;;;;3.97;1.80;;;;;;;20.89;79.92;99340.22;5038352;28;20203;-71
2022/09/15 06:19:43;;;;;;;6.73;1.50;;;;;;;20.85;80.58;99334.50;5071492;28;20429;-71
2022/09/15 06:22:09;;;;;;;4.90;2.07;;;;;;;20.89;80.08;99341.06;5037556;28;20428;-71
2022/09/15 06:24:34;;;;;;;5.33;1.70;;;;;;;20.92;79.70;99345.94;5050416;28;20199;-71
2022/09/15 06:27:00;;;;;;;7.57;1.93;;;;;;;20.93;79.85;99344.72;5052189;28;20225;-71
2022/09/15 06:29:25;;;;;;;7.37;2.07;;;;;;;20.84;79.97;99347.22;5050752;28;20183;-71
2022/09/15 06:31:50;;;;;;;4.30;2.17;;;;;;;20.86;80.24;99350.47;5050803;28;20175;-72
2022/09/15 06:34:16;;;;;;;6.20;1.60;;;;;;;20.72;80.95;99350.56;5050397;28;20168;-72
2022/09/15 06:36:41;;;;;;;6.83;1.80;;;;;;;20.80;80.68;99357.88;5052039;28;20178;-72
2022/09/15 06:39:07;;;;;;;8.57;1.90;;;;;;;20.85;80.01;99351.72;5052022;28;20183;-71
2022/09/15 06:41:33;;;;;;;5.20;1.67;;;;;;;20.62;81.63;99345.69;5034401;28;20164;-71
2022/09/15 06:43:58;;;;;;;9.30;1.60;;;;;;;20.58;82.28;99353.50;5050449;28;20215;-72
2022/09/15 06:46:24;;;;;;;4.03;1.77;;;;;;;20.63;81.69;99361.66;5052339;28;20172;-71
2022/09/15 06:48:50;;;;;;;4.87;3.00;;;;;;;20.77;81.06;99355.84;5053708;28;20165;-72
2022/09/15 06:51:17;;;;;;;3.93;1.73;;;;;;;20.88;80.53;99361.53;5020762;28;20175;-72
2022/09/15 06:53:42;;;;;;;9.90;1.60;;;;;;;20.82;80.86;99355.41;5018593;28;20418;-72
2022/09/15 06:56:19;;;;;;;4.97;1.70;;;;;;;20.78;80.96;99357.47;4997701;28;20437;-70
2022/09/15 06:58:44;;;;;;;4.97;1.77;;;;;;;20.85;80.85;99356.63;5016873;28;20179;-72
2022/09/15 07:01:12;;;;;;;5.23;2.27;;;;;;;20.87;80.53;99354.97;5033439;28;20490;-72
2022/09/15 07:03:39;;;;;;;4.90;1.83;;;;;;;20.94;80.43;99354.97;5033581;28;20258;-71
2022/09/15 07:06:05;;;;;;;6.27;1.80;;;;;;;20.66;81.67;99357.97;5033872;28;20430;-71
2022/09/15 07:08:30;;;;;;;5.70;1.60;;;;;;;20.77;81.26;99355.84;5017152;28;20545;-71
2022/09/15 07:10:56;;;;;;;5.47;2.47;;;;;;;20.68;81.78;99352.63;5033499;28;20180;-71
2022/09/15 07:13:22;;;;;;;6.23;2.37;;;;;;;20.60;82.07;99353.09;5033387;28;20233;-71
2022/09/15 07:15:55;;;;;;;3.00;1.70;;;;;;;20.69;81.14;99362.88;5033236;28;20172;-71
2022/09/15 07:18:21;;;;;;;5.23;2.00;;;;;;;20.52;82.74;99363.78;5017229;28;20551;-71
2022/09/15 07:20:46;;;;;;;4.10;1.97;;;;;;;20.67;81.71;99365.34;5033532;28;20422;-71
2022/09/15 07:23:12;;;;;;;4.97;1.90;;;;;;;20.66;81.77;99365.75;5019842;28;20221;-71
2022/09/15 07:25:37;;;;;;;8.43;2.50;;;;;;;20.41;83.59;99365.09;5013391;28;20179;-71
2022/09/15 07:28:03;;;;;;;4.40;1.87;;;;;;;20.45;83.29;99366.69;5050325;28;20167;-71
2022/09/15 07:30:28;;;;;;;4.17;1.80;;;;;;;20.29;83.96;99374.94;5033100;28;20179;-71
2022/09/15 07:32:54;;;;;;;4.43;1.63;;;;;;;20.34;83.83;99371.66;5051090;28;20650;-71
2022/09/15 07:35:20;;;;;;;2.87;1.60;;;;;;;20.43;83.49;99366.28;5051094;28;20195;-70
2022/09/15 07:37:47;;;;;;;4.00;1.63;;;;;;;20.32;84.06;99367.56;5033544;28;20700;-71
2022/09/15 07:40:13;;;;;;;6.23;1.33;;;;;;;20.26;84.38;99372.91;5050666;28;20445;-71
2022/09/15 07:42:42;;;;;;;6.13;1.90;;;;;;;20.35;83.76;99376.16;5032694;28;20418;-70
2022/09/15 07:45:08;;;;;;;4.07;1.67;;;;;;;20.33;84.22;99370.03;5016590;28;20402;-72
2022/09/15 07:47:33;;;;;;;4.50;1.60;;;;;;;20.45;83.53;99371.59;5050805;28;20422;-71
2022/09/15 07:49:59;;;;;;;2.90;1.70;;;;;;;20.36;84.12;99368.38;5016106;28;20426;-71
2022/09/15 07:52:24;;;;;;;5.93;1.70;;;;;;;20.52;82.86;99383.03;5032547;28;20180;-71
2022/09/15 07:54:50;;;;;;;3.33;1.30;;;;;;;20.41;83.48;99382.28;5051197;28;20202;-71
2022/09/15 07:57:15;;;;;;;4.20;1.40;;;;;;;20.56;82.90;99386.69;5050460;28;20175;-72
2022/09/15 07:59:40;;;;;;;6.10;1.87;;;;;;;20.38;83.99;99383.94;5016129;28;20199;-71
2022/09/15 08:02:06;;;;;;;7.90;1.83;;;;;;;20.37;84.05;99376.53;5050366;28;20202;-71
2022/09/15 08:04:31;;;;;;;4.53;1.77;;;;;;;20.45;83.60;99375.28;5032533;28;20659;-71
2022/09/15 08:06:57;;;;;;;3.57;1.60;;;;;;;20.47;83.31;99375.69;5050320;28;20232;-71
2022/09/15 08:09:22;;;;;;;3.90;1.90;;;;;;;20.56;83.37;99389.56;5032538;28;20175;-71
2022/09/15 08:11:48;;;;;;;5.10;1.50;;;;;;;20.60;83.08;99384.63;5032159;28;20194;-71
2022/09/15 08:14:13;;;;;;;5.07;1.80;;;;;;;20.47;83.88;99386.34;5032380;28;20164;-71
2022/09/15 08:16:39;;;;;;;5.90;1.90;;;;;;;20.25;85.49;99382.75;5049962;28;20179;-71
2022/09/15 08:19:05;;;;;;;3.07;1.57;;;;;;;20.43;84.07;99386.38;5032220;28;20171;-71
2022/09/15 08:21:30;;;;;;;2.63;1.50;;;;;;;20.49;83.85;99383.88;5050110;28;20487;-71
2022/09/15 08:24:00;;;;;;;3.50;1.60;;;;;;;20.42;84.08;99386.78;5049908;28;20484;-69
2022/09/15 08:26:26;;;;;;;5.27;1.40;;;;;;;20.53;83.55;99396.16;5032019;28;20172;-71
2022/09/15 08:28:51;;;;;;;6.97;1.80;;;;;;;20.51;84.30;99390.00;5015238;28;20928;-71
2022/09/15 08:31:17;;;;;;;4.20;1.50;;;;;;;20.31;85.38;99395.41;5049663;28;20425;-71
2022/09/15 08:33:47;;;;;;;2.90;1.47;;;;;;;20.50;83.94;99394.94;5048890;28;20171;-71
2022/09/15 08:36:12;;;;;;;4.93;1.50;;;;;;;20.47;84.36;99395.75;5015476;28;20210;-72
2022/09/15 08:38:42;;;;;;;5.10;1.93;;;;;;;20.58;84.00;99399.38;5049863;28;20411;-69
2022/09/15 08:41:28;;;;;;;2.43;1.03;;;;;;;20.69;82.71;99394.44;5031268;28;20539;-68
2022/09/15 08:43:56;;;;;;;2.60;1.03;;;;;;;20.69;83.03;99400.16;5048155;28;20466;-69
2022/09/15 08:46:28;;;;;;;5.37;1.50;;;;;;;20.48;84.62;99403.13;5049652;28;20425;-68
2022/09/15 08:49:02;;;;;;;3.10;1.50;;;;;;;20.48;84.64;99416.66;5039359;28;20462;-68
2022/09/15 08:51:31;;;;;;;4.57;1.60;;;;;;;20.47;85.09;99415.81;5029541;28;20439;-68
2022/09/15 08:54:04;;;;;;;3.73;1.50;;;;;;;20.62;83.75;99423.13;5011884;28;20415;-69
2022/09/15 08:56:30;;;;;;;2.90;1.40;;;;;;;20.64;84.06;99429.28;4998572;28;20523;-71
2022/09/15 08:58:55;;;;;;;2.60;1.23;;;;;;;20.75;82.93;99427.19;5031668;28;20919;-71
2022/09/15 09:01:40;;;;;;;4.60;2.33;;;;;;;20.54;84.16;99424.41;5049443;28;20195;-71
2022/09/15 09:04:44;;;;;;;2.40;1.37;;;;;;;20.54;84.88;99435.06;5031633;28;20282;-71
2022/09/15 09:07:46;;;;;;;4.17;1.70;;;;;;;20.61;83.95;99435.84;5025921;28;20909;-71
2022/09/15 09:10:33;;;;;;;8.80;1.77;;;;;;;20.64;84.13;99439.94;5045821;28;20421;-71
2022/09/15 09:13:17;;;;;;;3.37;1.60;;;;;;;20.71;83.06;99437.84;5034037;28;20415;-71
2022/09/15 09:16:24;;;;;;;3.10;1.30;;;;;;;20.73;82.98;99438.22;5032864;28;20460;-71
2022/09/15 09:19:25;;;;;;;4.83;1.60;;;;;;;20.73;83.17;99446.03;5006455;28;20463;-71
2022/09/15 09:22:01;;;;;;;4.30;1.90;;;;;;;20.71;83.58;99452.19;5026755;28;20429;-71
2022/09/15 09:24:43;;;;;;;6.63;1.40;;;;;;;20.72;83.15;99461.63;5015708;28;20729;-71
2022/09/15 09:27:19;;;;;;;4.33;1.67;;;;;;;20.70;83.36;99481.28;5010929;28;20514;-68
2022/09/15 09:29:49;;;;;;;2.73;1.20;;;;;;;20.63;82.23;99490.72;5027421;28;20781;-69
2022/09/15 09:32:26;;;;;;;3.30;1.47;;;;;;;20.76;81.06;99497.66;5014473;28;20518;-68
2022/09/15 09:35:02;;;;;;;2.93;1.23;;;;;;;20.60;81.01;99500.19;5031387;28;20920;-69
2022/09/15 09:37:28;;;;;;;3.93;1.40;;;;;;;20.46;79.79;99491.59;5048440;28;20409;-68
2022/09/15 09:39:53;;;;;;;2.73;1.37;;;;;;;20.36;79.45;99475.25;5030962;28;20410;-69
2022/09/15 09:42:18;;;;;;;2.53;1.40;;;;;;;20.36;79.78;99478.13;5030194;28;20179;-68
2022/09/15 09:44:44;;;;;;;4.37;1.43;;;;;;;20.39;78.72;99494.50;5028977;28;20211;-68
2022/09/15 09:47:11;;;;;;;3.33;1.30;;;;;;;20.09;77.79;99497.00;5047020;28;20180;-68
2022/09/15 09:49:39;;;;;;;2.93;1.53;;;;;;;19.98;78.82;99489.63;5013196;28;20510;-71
2022/09/15 09:52:05;;;;;;;3.30;1.60;;;;;;;20.23;77.65;99482.66;5028658;28;20964;-71
2022/09/15 09:54:31;;;;;;;2.73;1.20;;;;;;;20.26;78.07;99489.63;4998948;28;20790;-71
2022/09/15 09:57:12;;;;;;;5.77;1.60;;;;;;;20.17;77.62;99500.69;5032701;28;20638;-71
2022/09/15 09:59:42;;;;;;;3.80;1.77;;;;;;;20.02;78.05;99499.81;5051236;28;20436;-71
2022/09/15 10:02:10;;;;;;;4.07;1.50;;;;;;;20.26;77.29;99489.63;5018218;28;20945;-71
2022/09/15 10:05:11;;;;;;;3.33;1.50;;;;;;;19.99;77.75;99492.06;5052540;28;20945;-71
2022/09/15 10:07:40;;;;;;;4.97;2.33;;;;;;;20.09;77.46;99491.28;5020562;28;20503;-71
2022/09/15 10:10:06;;;;;;;3.77;1.63;;;;;;;20.25;76.80;99488.78;5017587;28;20929;-71
2022/09/15 10:12:33;;;;;;;3.33;1.67;;;;;;;20.32;76.46;99500.22;5033634;28;20948;-72
2022/09/15 10:15:00;;;;;;;3.40;1.57;;;;;;;20.31;76.28;99490.00;5033055;28;20839;-72
2022/09/15 10:17:42;;;;;;;5.90;1.90;;;;;;;20.19;76.34;99501.06;5015702;28;21004;-72
2022/09/15 10:20:46;;;;;;;2.60;1.60;;;;;;;20.09;76.79;99508.47;5034581;28;20456;-72
2022/09/15 10:23:20;;;;;;;4.20;1.77;;;;;;;20.19;76.97;99519.09;5030483;28;20481;-72
2022/09/15 10:25:46;;;;;;;2.93;1.43;;;;;;;20.09;76.99;99525.66;5050684;28;20414;-72
2022/09/15 10:28:22;;;;;;;3.80;1.70;;;;;;;20.21;76.65;99530.97;5033314;28;20796;-72
2022/09/15 10:31:00;;;;;;;3.33;2.03;;;;;;;20.38;75.97;99533.00;5019398;28;20427;-72
2022/09/15 10:33:27;;;;;;;5.63;3.00;;;;;;;20.36;76.24;99535.44;5052897;28;20449;-72
2022/09/15 10:35:53;;;;;;;4.53;2.10;;;;;;;20.20;76.64;99545.69;5036053;28;20422;-72
2022/09/15 10:38:30;;;;;;;3.03;2.03;;;;;;;20.27;75.84;99542.84;5018484;28;20918;-72
2022/09/15 10:41:15;;;;;;;5.80;1.80;;;;;;;20.41;75.45;99535.03;5018776;28;20907;-72
2022/09/15 10:44:11;;;;;;;5.10;2.17;;;;;;;20.25;75.87;99540.38;5052546;28;20485;-72
2022/09/15 10:46:45;;;;;;;2.83;2.10;;;;;;;20.46;74.98;99540.34;5052521;28;20438;-69
2022/09/15 10:49:39;;;;;;;4.83;2.80;;;;;;;20.47;75.05;99541.19;5034433;28;20417;-69
2022/09/15 10:52:20;;;;;;;3.90;2.90;;;;;;;20.37;75.40;99542.81;5030909;28;20421;-72
2022/09/15 10:55:12;;;;;;;4.00;2.70;;;;;;;20.31;75.58;99546.53;5051697;28;20812;-72
2022/09/15 10:58:03;;;;;;;5.00;2.83;;;;;;;20.31;75.47;99555.94;5051881;28;20422;-71
2022/09/15 11:00:49;;;;;;;6.10;3.10;;;;;;;20.06;75.11;99557.97;5016735;28;20420;-69
2022/09/15 11:03:37;;;;;;;4.30;2.77;;;;;;;20.27;75.04;99566.56;4998646;28;20934;-69
2022/09/15 11:06:08;;;;;;;4.03;2.70;;;;;;;20.41;74.57;99568.63;5031526;28;20395;-69
2022/09/15 11:09:01;;;;;;;4.27;2.80;;;;;;;20.45;74.68;99573.13;5031651;28;20517;-69
2022/09/15 11:11:55;;;;;;;4.60;2.60;;;;;;;20.51;74.39;99574.34;4998601;28;20429;-68
2022/09/15 11:14:35;;;;;;;4.73;2.67;;;;;;;20.52;74.37;99581.72;5016728;28;20516;-69
2022/09/15 11:17:10;;;;;;;5.63;2.60;;;;;;;20.56;74.05;99588.25;5051474;28;20943;-69
2022/09/15 11:19:46;;;;;;;6.80;3.03;;;;;;;20.60;74.19;99594.00;5051496;28;20472;-68
2022/09/15 11:22:34;;;;;;;4.90;2.83;;;;;;;20.62;73.96;99597.28;5029585;28;20798;-68
2022/09/15 11:25:01;;;;;;;4.17;2.50;;;;;;;20.64;73.78;99592.78;5044650;28;20513;-68
2022/09/15 11:27:35;;;;;;;4.30;2.50;;;;;;;20.57;74.24;99595.63;5016983;28;20433;-69
2022/09/15 11:30:20;;;;;;;6.13;2.53;;;;;;;20.61;73.79;99595.63;5051069;28;20426;-69
2022/09/15 11:32:50;;;;;;;5.60;2.67;;;;;;;20.54;73.72;99607.13;5019260;28;20463;-68
2022/09/15 11:35:47;;;;;;;5.10;2.93;;;;;;;20.46;74.13;99603.44;5017294;28;20425;-68
2022/09/15 11:38:41;;;;;;;7.50;2.93;;;;;;;20.58;74.36;99605.06;5019437;28;20939;-69
2022/09/15 11:41:34;;;;;;;5.30;2.70;;;;;;;20.56;73.95;99619.81;5009632;28;20817;-68
2022/09/15 11:44:20;;;;;;;6.43;2.70;;;;;;;20.63;73.99;99624.72;5035592;28;20500;-68
2022/09/15 11:47:03;;;;;;;4.90;2.67;;;;;;;20.58;73.94;99625.94;5016099;28;20442;-68
2022/09/15 11:49:35;;;;;;;4.57;2.40;;;;;;;20.53;73.81;99632.09;5050764;28;20433;-68
2022/09/15 11:52:23;;;;;;;5.60;2.70;;;;;;;20.59;73.54;99630.47;5016981;28;20845;-68